Round Mountain, Arkansas
Current Conditions -  °F | °C
As of 12:53 AM on Sunday 23 Nov 2014 (Local Time) from KRUE Reporting Station
Few Clouds Few Clouds  
Wind Chill: 57°   Ceiling: Unl
Heat Index: 57°   Visibility: 10mi
Dew Point: 53°   Wind: 5mph
Humidity: 87%   Direction: 120°ESE
Pressure: 29.75"   Gusts: NA
Location:  35.031°N, 93.0373°W
Report Text: KRUE 230653Z AUTO 12004KT 10SM FEW075 FEW090 14/12 A2975 RMK AO2 PRESFR SLP071 T01390117
Loading
Personal Weather Stations






























Interactive Weather Map New forecast layout! Learn more

10-Day Weather Forecast

Advertisements
Track Severe Weather on mobile